sensor_id;sensor_type;location;lat;lon;timestamp;pressure;altitude;pressure_sealevel;temperature;humidity
62111;BME280;48102;47.526;19.072;2024-01-25T04:39:25;100685.09;;;7.87;89.24
62111;BME280;48102;47.526;19.072;2024-01-25T04:42:29;100685.09;;;7.87;89.24
62111;BME280;48102;47.526;19.072;2024-01-25T04:45:31;100694.94;;;7.24;94.10
62111;BME280;48102;47.526;19.072;2024-01-25T04:48:35;100686.06;;;7.00;97.81
62111;BME280;48102;47.526;19.072;2024-01-25T04:51:39;100694.94;;;6.94;98.98
62111;BME280;48102;47.526;19.072;2024-01-25T04:54:43;100693.16;;;6.96;100.00
62111;BME280;48102;47.526;19.072;2024-01-25T04:57:46;100696.47;;;7.01;98.51
62111;BME280;48102;47.526;19.072;2024-01-25T05:00:51;100698.25;;;7.01;99.18
62111;BME280;48102;47.526;19.072;2024-01-25T05:03:55;100700.53;;;7.12;99.04
62111;BME280;48102;47.526;19.072;2024-01-25T05:06:59;100697.87;;;7.13;98.37
62111;BME280;48102;47.526;19.072;2024-01-25T05:10:02;100705.91;;;7.07;98.69
62111;BME280;48102;47.526;19.072;2024-01-25T05:13:05;100701.66;;;7.33;95.89
62111;BME280;48102;47.526;19.072;2024-01-25T05:16:08;100696.62;;;7.25;97.36
62111;BME280;48102;47.526;19.072;2024-01-25T05:19:11;100696.88;;;7.45;93.53
62111;BME280;48102;47.526;19.072;2024-01-25T05:22:14;100699.75;;;7.38;94.91
62111;BME280;48102;47.526;19.072;2024-01-25T05:25:18;100707.81;;;7.32;95.10
62111;BME280;48102;47.526;19.072;2024-01-25T05:28:21;100697.63;;;7.21;96.13
62111;BME280;48102;47.526;19.072;2024-01-25T05:31:25;100722.78;;;7.28;93.99
62111;BME280;48102;47.526;19.072;2024-01-25T05:34:28;100713.91;;;7.32;92.83
62111;BME280;48102;47.526;19.072;2024-01-25T05:37:31;100734.78;;;7.35;91.22
62111;BME280;48102;47.526;19.072;2024-01-25T05:40:34;100693.72;;;7.36;92.00
62111;BME280;48102;47.526;19.072;2024-01-25T05:43:38;100726.66;;;7.44;91.23
62111;BME280;48102;47.526;19.072;2024-01-25T05:46:40;100715.19;;;7.47;92.87
62111;BME280;48102;47.526;19.072;2024-01-25T05:49:43;100712.13;;;7.34;95.27
62111;BME280;48102;47.526;19.072;2024-01-25T05:52:46;100729.28;;;7.44;94.71
62111;BME280;48102;47.526;19.072;2024-01-25T05:55:49;100717.94;;;7.42;95.61
62111;BME280;48102;47.526;19.072;2024-01-25T05:58:52;100726.97;;;7.34;98.50
62111;BME280;48102;47.526;19.072;2024-01-25T06:01:55;100723.41;;;7.36;98.85
62111;BME280;48102;47.526;19.072;2024-01-25T06:04:58;100712.13;;;7.34;98.74
62111;BME280;48102;47.526;19.072;2024-01-25T06:08:02;100741.06;;;7.29;99.53
62111;BME280;48102;47.526;19.072;2024-01-25T06:11:05;100730.34;;;7.37;98.78
62111;BME280;48102;47.526;19.072;2024-01-25T06:14:09;100730.97;;;7.45;97.81
62111;BME280;48102;47.526;19.072;2024-01-25T06:17:12;100743.19;;;7.46;97.54
62111;BME280;48102;47.526;19.072;2024-01-25T06:20:15;100757.16;;;7.47;97.45
62111;BME280;48102;47.526;19.072;2024-01-25T06:23:19;100776.47;;;7.44;96.70
62111;BME280;48102;47.526;19.072;2024-01-25T06:26:22;100769.31;;;7.49;96.56
62111;BME280;48102;47.526;19.072;2024-01-25T06:29:25;100778.94;;;7.49;95.30
62111;BME280;48102;47.526;19.072;2024-01-25T06:32:28;100742.31;;;7.46;97.37
62111;BME280;48102;47.526;19.072;2024-01-25T06:35:31;100752.78;;;7.47;96.18
62111;BME280;48102;47.526;19.072;2024-01-25T06:38:34;100758.75;;;7.52;94.99
62111;BME280;48102;47.526;19.072;2024-01-25T06:41:39;100761.22;;;7.57;93.71
62111;BME280;48102;47.526;19.072;2024-01-25T06:44:41;100777.94;;;7.53;95.39
62111;BME280;48102;47.526;19.072;2024-01-25T06:47:44;100787.66;;;7.49;96.89
62111;BME280;48102;47.526;19.072;2024-01-25T06:50:47;100781.78;;;7.41;97.34
62111;BME280;48102;47.526;19.072;2024-01-25T06:53:52;100777.69;;;7.33;99.22
62111;BME280;48102;47.526;19.072;2024-01-25T06:56:57;100797.84;;;7.31;98.97
62111;BME280;48102;47.526;19.072;2024-01-25T07:00:00;100789.72;;;7.40;98.41
62111;BME280;48102;47.526;19.072;2024-01-25T07:03:03;100756.78;;;7.29;99.30
62111;BME280;48102;47.526;19.072;2024-01-25T07:06:07;100740.06;;;7.34;98.08
62111;BME280;48102;47.526;19.072;2024-01-25T07:09:10;100732.53;;;7.23;99.48
62111;BME280;48102;47.526;19.072;2024-01-25T07:12:13;100712.28;;;7.28;97.30
62111;BME280;48102;47.526;19.072;2024-01-25T07:15:16;100709.91;;;7.48;93.51
62111;BME280;48102;47.526;19.072;2024-01-25T07:18:20;100691.31;;;7.56;93.67
62111;BME280;48102;47.526;19.072;2024-01-25T07:21:23;100678.63;;;7.70;89.45
62111;BME280;48102;47.526;19.072;2024-01-25T07:24:25;100666.56;;;7.91;86.07
62111;BME280;48102;47.526;19.072;2024-01-25T07:27:29;100668.88;;;8.00;84.75
62111;BME280;48102;47.526;19.072;2024-01-25T07:30:32;100693.09;;;8.09;82.32
62111;BME280;48102;47.526;19.072;2024-01-25T07:33:35;100690.94;;;8.20;81.95
62111;BME280;48102;47.526;19.072;2024-01-25T07:36:39;100700.34;;;8.27;80.82
62111;BME280;48102;47.526;19.072;2024-01-25T07:39:42;100710.59;;;8.33;79.61
62111;BME280;48102;47.526;19.072;2024-01-25T07:42:46;100713.94;;;8.40;79.05
62111;BME280;48102;47.526;19.072;2024-01-25T07:45:49;100724.16;;;8.47;78.31
62111;BME280;48102;47.526;19.072;2024-01-25T07:48:56;100721.31;;;8.53;76.92
62111;BME280;48102;47.526;19.072;2024-01-25T07:51:59;100732.56;;;8.57;77.23
62111;BME280;48102;47.526;19.072;2024-01-25T07:55:02;100755.97;;;8.65;75.02
62111;BME280;48102;47.526;19.072;2024-01-25T07:58:08;100741.56;;;8.75;75.40
62111;BME280;48102;47.526;19.072;2024-01-25T08:01:11;100751.72;;;8.86;76.61
62111;BME280;48102;47.526;19.072;2024-01-25T08:04:15;100761.75;;;8.98;74.30
62111;BME280;48102;47.526;19.072;2024-01-25T08:07:18;100753.97;;;9.20;69.92
62111;BME280;48102;47.526;19.072;2024-01-25T08:10:22;100748.63;;;9.67;68.48
62111;BME280;48102;47.526;19.072;2024-01-25T08:13:25;100759.19;;;9.43;68.96
62111;BME280;48102;47.526;19.072;2024-01-25T08:16:31;100762.75;;;9.19;69.85
62111;BME280;48102;47.526;19.072;2024-01-25T08:19:35;100770.88;;;9.13;69.92
62111;BME280;48102;47.526;19.072;2024-01-25T08:22:41;100756.81;;;9.14;69.85
62111;BME280;48102;47.526;19.072;2024-01-25T08:25:44;100756.41;;;9.24;67.83
62111;BME280;48102;47.526;19.072;2024-01-25T08:28:48;100756.09;;;9.32;67.58
62111;BME280;48102;47.526;19.072;2024-01-25T08:31:53;100748.91;;;9.37;69.21
62111;BME280;48102;47.526;19.072;2024-01-25T08:34:58;100736.00;;;9.53;68.18
62111;BME280;48102;47.526;19.072;2024-01-25T08:38:02;100745.66;;;9.76;64.15
62111;BME280;48102;47.526;19.072;2024-01-25T08:41:05;100749.03;;;10.00;62.23
62111;BME280;48102;47.526;19.072;2024-01-25T08:44:08;100746.91;;;9.88;61.69
62111;BME280;48102;47.526;19.072;2024-01-25T08:47:11;100744.47;;;9.83;62.55
62111;BME280;48102;47.526;19.072;2024-01-25T08:50:14;100758.09;;;9.93;61.73
62111;BME280;48102;47.526;19.072;2024-01-25T08:53:17;100754.31;;;10.00;61.58
62111;BME280;48102;47.526;19.072;2024-01-25T08:56:20;100762.75;;;10.08;61.27
62111;BME280;48102;47.526;19.072;2024-01-25T08:59:23;100769.00;;;10.27;61.02
62111;BME280;48102;47.526;19.072;2024-01-25T09:02:26;100779.84;;;10.62;60.42
62111;BME280;48102;47.526;19.072;2024-01-25T09:05:30;100779.22;;;10.35;60.25
62111;BME280;48102;47.526;19.072;2024-01-25T09:08:36;100806.97;;;10.22;59.96
62111;BME280;48102;47.526;19.072;2024-01-25T09:11:39;100781.97;;;10.10;60.71
62111;BME280;48102;47.526;19.072;2024-01-25T09:14:45;100802.91;;;10.13;60.89
62111;BME280;48102;47.526;19.072;2024-01-25T09:17:47;100810.91;;;10.12;60.45
62111;BME280;48102;47.526;19.072;2024-01-25T09:20:50;100808.66;;;10.23;61.03
62111;BME280;48102;47.526;19.072;2024-01-25T09:23:56;100818.25;;;10.03;61.41
62111;BME280;48102;47.526;19.072;2024-01-25T09:26:59;100830.47;;;10.04;61.11
62111;BME280;48102;47.526;19.072;2024-01-25T09:30:03;100816.03;;;10.15;61.22
62111;BME280;48102;47.526;19.072;2024-01-25T09:33:07;100814.47;;;10.33;60.58
62111;BME280;48102;47.526;19.072;2024-01-25T09:36:11;100808.28;;;10.34;60.16
62111;BME280;48102;47.526;19.072;2024-01-25T09:39:14;100835.53;;;10.33;59.61
62111;BME280;48102;47.526;19.072;2024-01-25T09:42:18;100806.87;;;10.25;59.66
62111;BME280;48102;47.526;19.072;2024-01-25T09:45:21;100827.81;;;10.28;60.51
62111;BME280;48102;47.526;19.072;2024-01-25T09:48:26;100840.06;;;10.29;60.08
62111;BME280;48102;47.526;19.072;2024-01-25T09:51:36;100837.16;;;10.35;59.46
62111;BME280;48102;47.526;19.072;2024-01-25T09:54:40;100829.87;;;10.42;59.51
62111;BME280;48102;47.526;19.072;2024-01-25T09:57:45;100832.94;;;10.31;59.01
62111;BME280;48102;47.526;19.072;2024-01-25T10:00:49;100846.38;;;10.01;60.49
62111;BME280;48102;47.526;19.072;2024-01-25T10:03:56;100838.62;;;9.98;61.94
62111;BME280;48102;47.526;19.072;2024-01-25T10:06:59;100833.78;;;10.10;61.03
62111;BME280;48102;47.526;19.072;2024-01-25T10:10:02;100849.94;;;10.22;60.66
62111;BME280;48102;47.526;19.072;2024-01-25T10:13:12;100829.09;;;10.40;60.97
62111;BME280;48102;47.526;19.072;2024-01-25T10:16:18;100839.56;;;10.41;59.21
62111;BME280;48102;47.526;19.072;2024-01-25T10:19:22;100848.94;;;10.26;59.86
62111;BME280;48102;47.526;19.072;2024-01-25T10:22:25;100835.41;;;10.36;59.94
62111;BME280;48102;47.526;19.072;2024-01-25T10:25:30;100818.34;;;10.44;59.76
62111;BME280;48102;47.526;19.072;2024-01-25T10:28:36;100820.47;;;10.57;59.31
62111;BME280;48102;47.526;19.072;2024-01-25T10:31:40;100809.94;;;10.57;58.79
62111;BME280;48102;47.526;19.072;2024-01-25T10:34:45;100818.66;;;10.59;60.17
62111;BME280;48102;47.526;19.072;2024-01-25T10:37:49;100824.78;;;10.59;59.16
62111;BME280;48102;47.526;19.072;2024-01-25T10:40:54;100810.47;;;10.65;58.76
62111;BME280;48102;47.526;19.072;2024-01-25T10:43:57;100817.25;;;10.70;58.42
62111;BME280;48102;47.526;19.072;2024-01-25T10:47:00;100818.25;;;10.88;58.79
62111;BME280;48102;47.526;19.072;2024-01-25T10:50:04;100816.69;;;10.84;57.40
62111;BME280;48102;47.526;19.072;2024-01-25T10:53:11;100807.25;;;10.78;57.39
62111;BME280;48102;47.526;19.072;2024-01-25T10:56:15;100811.09;;;10.71;59.01
62111;BME280;48102;47.526;19.072;2024-01-25T10:59:18;100819.69;;;10.75;58.78
62111;BME280;48102;47.526;19.072;2024-01-25T11:02:21;100805.59;;;10.76;57.66
62111;BME280;48102;47.526;19.072;2024-01-25T11:05:24;100808.44;;;10.71;57.91
62111;BME280;48102;47.526;19.072;2024-01-25T11:08:28;100813.72;;;10.71;57.18
62111;BME280;48102;47.526;19.072;2024-01-25T11:11:31;100814.41;;;10.75;57.73
62111;BME280;48102;47.526;19.072;2024-01-25T11:14:37;100801.72;;;10.64;56.10
62111;BME280;48102;47.526;19.072;2024-01-25T11:17:40;100804.28;;;10.66;56.30
62111;BME280;48102;47.526;19.072;2024-01-25T11:20:47;100811.28;;;10.67;56.14
62111;BME280;48102;47.526;19.072;2024-01-25T11:23:59;100791.81;;;10.69;56.16
62111;BME280;48102;47.526;19.072;2024-01-25T11:27:02;100798.84;;;10.48;55.88
62111;BME280;48102;47.526;19.072;2024-01-25T11:30:08;100823.69;;;10.43;56.23
62111;BME280;48102;47.526;19.072;2024-01-25T11:33:11;100805.12;;;10.46;56.73
62111;BME280;48102;47.526;19.072;2024-01-25T11:36:14;100800.63;;;10.48;57.56
62111;BME280;48102;47.526;19.072;2024-01-25T11:39:17;100795.53;;;10.45;57.50
62111;BME280;48102;47.526;19.072;2024-01-25T11:42:20;100800.44;;;10.52;57.25
62111;BME280;48102;47.526;19.072;2024-01-25T11:45:25;100808.44;;;10.51;57.51
62111;BME280;48102;47.526;19.072;2024-01-25T11:48:28;100790.25;;;10.45;56.98
62111;BME280;48102;47.526;19.072;2024-01-25T11:51:32;100783.19;;;10.45;57.07
62111;BME280;48102;47.526;19.072;2024-01-25T11:54:35;100781.16;;;10.52;56.42
62111;BME280;48102;47.526;19.072;2024-01-25T11:57:39;100787.16;;;10.55;56.48
62111;BME280;48102;47.526;19.072;2024-01-25T12:00:43;100794.28;;;10.53;56.30
62111;BME280;48102;47.526;19.072;2024-01-25T12:03:46;100799.66;;;10.50;55.92
62111;BME280;48102;47.526;19.072;2024-01-25T12:06:49;100789.44;;;10.43;55.75
62111;BME280;48102;47.526;19.072;2024-01-25T12:10:01;100828.00;;;10.45;55.60
62111;BME280;48102;47.526;19.072;2024-01-25T12:13:08;100809.91;;;10.36;55.04
62111;BME280;48102;47.526;19.072;2024-01-25T12:16:13;100807.75;;;10.24;54.10
62111;BME280;48102;47.526;19.072;2024-01-25T12:19:16;100805.94;;;10.26;55.85
62111;BME280;48102;47.526;19.072;2024-01-25T12:22:20;100821.56;;;10.30;55.69
62111;BME280;48102;47.526;19.072;2024-01-25T12:25:23;100827.09;;;10.24;56.07
62111;BME280;48102;47.526;19.072;2024-01-25T12:28:28;100833.94;;;10.28;55.28
62111;BME280;48102;47.526;19.072;2024-01-25T12:31:31;100814.78;;;10.25;55.16
62111;BME280;48102;47.526;19.072;2024-01-25T12:34:34;100799.72;;;10.28;54.72
62111;BME280;48102;47.526;19.072;2024-01-25T12:37:40;100796.34;;;10.25;54.76
62111;BME280;48102;47.526;19.072;2024-01-25T12:40:45;100801.09;;;10.15;53.90
62111;BME280;48102;47.526;19.072;2024-01-25T12:43:49;100784.78;;;10.05;54.41
62111;BME280;48102;47.526;19.072;2024-01-25T12:46:54;100806.75;;;10.06;55.68
62111;BME280;48102;47.526;19.072;2024-01-25T12:49:58;100783.50;;;10.16;55.79
62111;BME280;48102;47.526;19.072;2024-01-25T12:53:05;100777.41;;;10.15;55.11
62111;BME280;48102;47.526;19.072;2024-01-25T12:56:09;100779.87;;;10.18;54.98
62111;BME280;48102;47.526;19.072;2024-01-25T12:59:12;100769.34;;;10.18;56.24
62111;BME280;48102;47.526;19.072;2024-01-25T13:02:15;100780.88;;;10.16;55.08
62111;BME280;48102;47.526;19.072;2024-01-25T13:05:21;100777.91;;;10.03;55.91
62111;BME280;48102;47.526;19.072;2024-01-25T13:08:24;100764.84;;;10.00;54.53
62111;BME280;48102;47.526;19.072;2024-01-25T13:11:28;100770.47;;;9.91;55.07
62111;BME280;48102;47.526;19.072;2024-01-25T13:14:31;100748.00;;;10.04;55.15
62111;BME280;48102;47.526;19.072;2024-01-25T13:17:35;100758.59;;;10.02;55.55
62111;BME280;48102;47.526;19.072;2024-01-25T13:20:41;100770.22;;;9.97;56.78
62111;BME280;48102;47.526;19.072;2024-01-25T13:23:46;100755.25;;;9.99;55.91
62111;BME280;48102;47.526;19.072;2024-01-25T13:26:48;100758.28;;;9.88;56.44
62111;BME280;48102;47.526;19.072;2024-01-25T13:29:52;100762.16;;;9.79;57.47
62111;BME280;48102;47.526;19.072;2024-01-25T13:32:56;100768.16;;;9.83;56.81
62111;BME280;48102;47.526;19.072;2024-01-25T13:35:59;100770.66;;;9.86;55.95
62111;BME280;48102;47.526;19.072;2024-01-25T13:39:05;100768.25;;;9.80;56.71
62111;BME280;48102;47.526;19.072;2024-01-25T13:42:08;100787.62;;;9.79;56.78
62111;BME280;48102;47.526;19.072;2024-01-25T13:45:11;100767.28;;;9.83;57.79
62111;BME280;48102;47.526;19.072;2024-01-25T13:48:13;100782.03;;;9.65;57.62
62111;BME280;48102;47.526;19.072;2024-01-25T13:51:17;100788.78;;;9.72;57.27
62111;BME280;48102;47.526;19.072;2024-01-25T13:54:20;100783.19;;;9.79;57.57
62111;BME280;48102;47.526;19.072;2024-01-25T13:57:23;100785.53;;;9.87;56.93
62111;BME280;48102;47.526;19.072;2024-01-25T14:00:27;100799.50;;;9.89;56.48
62111;BME280;48102;47.526;19.072;2024-01-25T14:03:30;100802.25;;;10.08;56.35
62111;BME280;48102;47.526;19.072;2024-01-25T14:06:33;100809.66;;;10.20;55.71
62111;BME280;48102;47.526;19.072;2024-01-25T14:09:37;100838.00;;;10.58;55.48
62111;BME280;48102;47.526;19.072;2024-01-25T14:12:40;100827.66;;;10.53;55.50
62111;BME280;48102;47.526;19.072;2024-01-25T14:15:44;100832.72;;;10.58;54.70
62111;BME280;48102;47.526;19.072;2024-01-25T14:18:47;100841.72;;;10.53;55.14
62111;BME280;48102;47.526;19.072;2024-01-25T14:21:50;100834.47;;;10.59;55.52
62111;BME280;48102;47.526;19.072;2024-01-25T14:24:56;100830.63;;;11.07;54.21
62111;BME280;48102;47.526;19.072;2024-01-25T14:28:02;100848.53;;;11.77;51.98
62111;BME280;48102;47.526;19.072;2024-01-25T14:31:06;100835.94;;;12.91;49.61
62111;BME280;48102;47.526;19.072;2024-01-25T14:34:09;100866.50;;;13.14;48.21
62111;BME280;48102;47.526;19.072;2024-01-25T14:37:12;100841.38;;;13.71;47.06
62111;BME280;48102;47.526;19.072;2024-01-25T14:40:17;100878.56;;;14.33;45.87
62111;BME280;48102;47.526;19.072;2024-01-25T14:43:40;100885.44;;;14.21;45.77
62111;BME280;48102;47.526;19.072;2024-01-25T14:46:43;100899.34;;;14.41;45.10
62111;BME280;48102;47.526;19.072;2024-01-25T14:49:46;100897.56;;;14.57;44.82
62111;BME280;48102;47.526;19.072;2024-01-25T14:52:50;100904.41;;;14.14;45.65
62111;BME280;48102;47.526;19.072;2024-01-25T14:55:53;100894.59;;;12.81;47.92
62111;BME280;48102;47.526;19.072;2024-01-25T14:58:59;100920.38;;;12.04;49.85
62111;BME280;48102;47.526;19.072;2024-01-25T15:02:02;100908.63;;;11.53;51.70
62111;BME280;48102;47.526;19.072;2024-01-25T15:05:05;100907.75;;;10.91;52.93
62111;BME280;48102;47.526;19.072;2024-01-25T15:08:08;100910.75;;;10.40;54.65
62111;BME280;48102;47.526;19.072;2024-01-25T15:11:11;100916.69;;;9.99;55.46
62111;BME280;48102;47.526;19.072;2024-01-25T15:14:13;100919.84;;;9.86;55.65
62111;BME280;48102;47.526;19.072;2024-01-25T15:17:16;100910.50;;;9.53;56.40
62111;BME280;48102;47.526;19.072;2024-01-25T15:20:19;100915.69;;;9.32;57.49
62111;BME280;48102;47.526;19.072;2024-01-25T15:23:22;100923.28;;;9.14;58.21
62111;BME280;48102;47.526;19.072;2024-01-25T15:26:26;100922.75;;;9.04;58.27
62111;BME280;48102;47.526;19.072;2024-01-25T15:29:29;100907.66;;;8.85;59.49
62111;BME280;48102;47.526;19.072;2024-01-25T15:32:34;100927.06;;;8.80;59.68
62111;BME280;48102;47.526;19.072;2024-01-25T15:35:37;100928.37;;;8.67;60.35
62111;BME280;48102;47.526;19.072;2024-01-25T15:38:39;100924.53;;;8.51;60.80
62111;BME280;48102;47.526;19.072;2024-01-25T15:41:44;100917.19;;;8.33;62.30
62111;BME280;48102;47.526;19.072;2024-01-25T15:44:51;100916.62;;;8.23;63.20
62111;BME280;48102;47.526;19.072;2024-01-25T15:47:54;100916.97;;;8.12;64.34
62111;BME280;48102;47.526;19.072;2024-01-25T15:50:56;100925.22;;;7.98;65.57
62111;BME280;48102;47.526;19.072;2024-01-25T15:53:59;100925.34;;;7.95;66.48
62111;BME280;48102;47.526;19.072;2024-01-25T15:57:03;100925.44;;;7.92;66.72
62111;BME280;48102;47.526;19.072;2024-01-25T16:00:16;100915.72;;;7.94;66.83
62111;BME280;48102;47.526;19.072;2024-01-25T16:03:19;100907.75;;;7.69;68.86
62111;BME280;48102;47.526;19.072;2024-01-25T16:06:22;100913.97;;;7.65;69.13
62111;BME280;48102;47.526;19.072;2024-01-25T16:09:25;100914.91;;;7.63;69.56
62111;BME280;48102;47.526;19.072;2024-01-25T16:12:27;100903.00;;;7.51;70.53
62111;BME280;48102;47.526;19.072;2024-01-25T16:15:31;100898.84;;;7.44;71.59
62111;BME280;48102;47.526;19.072;2024-01-25T16:18:33;100894.66;;;7.37;71.05
62111;BME280;48102;47.526;19.072;2024-01-25T16:21:36;100878.50;;;7.21;72.79
62111;BME280;48102;47.526;19.072;2024-01-25T16:24:39;100899.94;;;7.02;74.66
62111;BME280;48102;47.526;19.072;2024-01-25T16:27:42;100895.66;;;7.00;75.80
62111;BME280;48102;47.526;19.072;2024-01-25T16:30:45;100899.38;;;6.91;76.20
62111;BME280;48102;47.526;19.072;2024-01-25T16:33:47;100898.63;;;6.86;75.68
62111;BME280;48102;47.526;19.072;2024-01-25T16:36:50;100894.03;;;6.96;75.80
62111;BME280;48102;47.526;19.072;2024-01-25T16:39:53;100909.31;;;6.78;76.81
62111;BME280;48102;47.526;19.072;2024-01-25T16:42:56;100925.41;;;6.63;78.74
62111;BME280;48102;47.526;19.072;2024-01-25T16:45:59;100919.47;;;6.55;79.52
62111;BME280;48102;47.526;19.072;2024-01-25T16:49:01;100922.72;;;6.65;78.07
62111;BME280;48102;47.526;19.072;2024-01-25T16:52:04;100915.72;;;6.67;77.82
62111;BME280;48102;47.526;19.072;2024-01-25T16:55:07;100922.78;;;6.63;78.42
62111;BME280;48102;47.526;19.072;2024-01-25T16:58:10;100922.84;;;6.60;79.06
62111;BME280;48102;47.526;19.072;2024-01-25T17:01:12;100921.19;;;6.58;79.33
62111;BME280;48102;47.526;19.072;2024-01-25T17:04:16;100923.72;;;6.61;78.92
62111;BME280;48102;47.526;19.072;2024-01-25T17:07:21;100935.06;;;6.60;78.19
62111;BME280;48102;47.526;19.072;2024-01-25T17:10:24;100932.50;;;6.58;78.19
62111;BME280;48102;47.526;19.072;2024-01-25T17:13:26;100926.75;;;6.44;79.62
